createdAt,value
2016-08-25T00:00:11.273Z,"    0"
2016-08-25T00:05:07.797Z,"    0"
2016-08-25T00:10:04.431Z,"    0"
2016-08-25T00:15:01.166Z,"    0"
2016-08-25T00:19:57.899Z,"    0"
2016-08-25T00:24:54.620Z,"    0"
2016-08-25T00:29:51.225Z,"    0"
2016-08-25T00:34:48.029Z,"    0"
2016-08-25T00:39:44.681Z,"    0"
2016-08-25T00:44:41.373Z,"    0"
2016-08-25T00:49:38.389Z,"    0"
2016-08-25T00:54:34.952Z,"    0"
2016-08-25T00:59:31.556Z,"    0"
2016-08-25T01:04:28.152Z,"    0"
2016-08-25T01:09:24.697Z,"    0"
2016-08-25T01:14:21.509Z,"    0"
2016-08-25T01:19:18.291Z,"    0"
2016-08-25T01:24:14.765Z,"    0"
2016-08-25T01:29:11.341Z,"    0"
2016-08-25T01:34:07.914Z,"    0"
2016-08-25T01:39:04.626Z,"    0"
2016-08-25T01:44:01.377Z,"    0"
2016-08-25T01:48:58.083Z,"    0"
2016-08-25T01:53:55.667Z,"    0"
2016-08-25T01:58:51.888Z,"    0"
2016-08-25T02:03:48.408Z,"    0"
2016-08-25T02:08:44.925Z,"    0"
2016-08-25T02:13:41.531Z,"    0"
2016-08-25T02:18:38.176Z,"    0"
2016-08-25T02:23:34.729Z,"    0"
2016-08-25T02:28:31.275Z,"    0"
2016-08-25T02:33:28.188Z,"    0"
2016-08-25T02:38:25.206Z,"    0"
2016-08-25T02:43:22.004Z,"    0"
2016-08-25T02:48:18.699Z,"    0"
2016-08-25T02:53:15.778Z,"    0"
2016-08-25T02:58:12.233Z,"    0"
2016-08-25T03:03:08.862Z,"    0"
2016-08-25T03:08:05.638Z,"    0"
2016-08-25T03:13:03.245Z,"    0"
2016-08-25T03:17:59.963Z,"    0"
2016-08-25T03:22:56.560Z,"    0"
2016-08-25T03:27:52.977Z,"    0"
2016-08-25T03:32:49.629Z,"    0"
2016-08-25T03:37:46.199Z,"    0"
2016-08-25T03:42:42.763Z,"    0"
2016-08-25T03:47:39.505Z,"    0"
2016-08-25T03:52:36.203Z,"    0"
2016-08-25T03:57:32.945Z,"    0"
2016-08-25T04:02:29.668Z,"    0"
2016-08-25T04:07:26.889Z,"    0"
2016-08-25T04:12:24.034Z,"    0"
2016-08-25T04:17:20.796Z,"    0"
2016-08-25T04:22:17.348Z,"    0"
2016-08-25T04:27:15.179Z,"    0"
2016-08-25T04:32:11.946Z,"    0"
2016-08-25T04:37:08.483Z,"    0"
2016-08-25T04:42:05.383Z,"    0"
2016-08-25T04:47:02.360Z,"    0"
2016-08-25T04:51:59.014Z,"    0"
2016-08-25T04:56:55.746Z,"    0"
2016-08-25T05:01:52.873Z,"    0"
2016-08-25T05:06:49.527Z,"    0"
2016-08-25T05:11:46.169Z,"    5"
2016-08-25T05:16:42.955Z,"    5"
2016-08-25T05:21:39.886Z,"    5"
2016-08-25T05:26:36.912Z,"    5"
2016-08-25T05:31:34.397Z,"    5"
2016-08-25T05:36:31.445Z,"    5"
2016-08-25T05:41:28.123Z,"    5"
2016-08-25T05:46:24.807Z,"    5"
2016-08-25T05:51:21.676Z,"    5"
2016-08-25T05:56:18.329Z,"    5"
2016-08-25T06:01:14.983Z,"   10"
2016-08-25T06:06:11.796Z,"   10"
2016-08-25T06:11:08.783Z,"   10"
2016-08-25T06:16:05.644Z,"   15"
2016-08-25T06:21:02.402Z,"   15"
2016-08-25T06:25:59.090Z,"   15"
2016-08-25T06:30:55.563Z,"   10"
2016-08-25T06:35:52.432Z,"   10"
2016-08-25T06:40:49.192Z,"   10"
2016-08-25T06:45:46.009Z,"   10"
2016-08-25T06:50:42.789Z,"   10"
2016-08-25T06:55:39.398Z,"   10"
2016-08-25T07:00:36.067Z,"   15"
2016-08-25T07:05:32.823Z,"   10"
2016-08-25T07:10:29.477Z,"   10"
2016-08-25T07:15:26.281Z,"   10"
2016-08-25T07:20:23.332Z,"   10"
2016-08-25T07:25:20.286Z,"   10"
2016-08-25T07:30:17.135Z,"   15"
2016-08-25T07:35:13.667Z,"   20"
2016-08-25T07:40:10.399Z,"   30"
2016-08-25T07:45:07.157Z,"   75"
2016-08-25T07:50:03.776Z,"   35"
2016-08-25T07:55:00.283Z,"  255"
2016-08-25T07:59:57.565Z,"  265"
2016-08-25T08:04:54.320Z,"  150"
2016-08-25T08:09:51.730Z,"  395"
2016-08-25T08:14:49.375Z,"  660"
2016-08-25T08:19:46.885Z,"  740"
2016-08-25T08:24:44.263Z,"  530"
2016-08-25T08:29:41.550Z,"  155"
2016-08-25T08:34:38.766Z,"  125"
2016-08-25T08:39:35.774Z,"  100"
2016-08-25T08:44:35.443Z,"   85"
2016-08-25T08:49:31.905Z,"   75"
2016-08-25T08:54:28.596Z,"   55"
2016-08-25T08:59:25.038Z,"   35"
2016-08-25T09:04:21.277Z,"   25"
2016-08-25T09:09:17.621Z,"   25"
2016-08-25T09:14:14.074Z,"   25"
2016-08-25T09:19:10.225Z,"   25"
2016-08-25T09:24:07.909Z,"   20"
2016-08-25T09:29:03.746Z,"   20"
2016-08-25T09:34:00.155Z,"   15"
2016-08-25T09:38:56.633Z,"   15"
2016-08-25T09:43:53.284Z,"   15"
2016-08-25T09:48:50.090Z,"   15"
2016-08-25T09:53:46.948Z,"   15"
2016-08-25T09:58:43.780Z,"   15"
2016-08-25T10:03:40.390Z,"   15"
2016-08-25T10:08:39.694Z,"   15"
2016-08-25T10:13:35.804Z,"   15"
2016-08-25T10:18:32.748Z,"   15"
2016-08-25T10:23:29.401Z,"   15"
2016-08-25T10:28:26.044Z,"   15"
2016-08-25T10:33:22.657Z,"   15"
2016-08-25T10:38:19.552Z,"   15"
2016-08-25T10:43:16.190Z,"   15"
2016-08-25T10:48:12.861Z,"   15"
2016-08-25T10:53:09.719Z,"   15"
2016-08-25T10:58:06.425Z,"   15"
2016-08-25T11:03:06.317Z,"   10"
2016-08-25T11:08:02.432Z,"   10"
2016-08-25T11:12:59.226Z,"   10"
2016-08-25T11:17:55.784Z,"   10"
2016-08-25T11:22:52.615Z,"   10"
2016-08-25T11:27:49.283Z,"   10"
2016-08-25T11:32:45.933Z,"   10"
2016-08-25T11:37:42.472Z,"   10"
2016-08-25T11:42:39.253Z,"   10"
2016-08-25T11:47:35.996Z,"   10"
2016-08-25T11:52:32.864Z,"   10"
2016-08-25T11:57:29.535Z,"   10"
2016-08-25T12:02:25.941Z,"   10"
2016-08-25T12:07:22.604Z,"   10"
2016-08-25T12:12:19.478Z,"   10"
2016-08-25T12:17:16.393Z,"   10"
2016-08-25T12:22:13.100Z,"   10"
2016-08-25T12:27:09.974Z,"   10"
2016-08-25T12:32:06.524Z,"   10"
2016-08-25T12:37:03.146Z,"   10"
2016-08-25T12:41:59.950Z,"   10"
2016-08-25T12:46:56.655Z,"   10"
2016-08-25T12:51:53.369Z,"   10"
2016-08-25T12:56:50.090Z,"   10"
2016-08-25T13:01:46.809Z,"   10"
2016-08-25T13:06:43.810Z,"   10"
2016-08-25T13:11:40.541Z,"   10"
2016-08-25T13:16:37.255Z,"   10"
2016-08-25T13:21:36.408Z,"   10"
2016-08-25T13:26:32.649Z,"   10"
2016-08-25T13:31:29.749Z,"   10"
2016-08-25T13:36:26.460Z,"   10"
2016-08-25T13:41:23.476Z,"   10"
2016-08-25T13:46:20.007Z,"    5"
2016-08-25T13:51:16.794Z,"    5"
2016-08-25T13:56:13.875Z,"    5"
2016-08-25T14:01:10.385Z,"    5"
2016-08-25T14:06:07.216Z,"    5"
2016-08-25T14:11:03.819Z,"    5"
2016-08-25T14:16:00.524Z,"    5"
2016-08-25T14:20:57.086Z,"    5"
2016-08-25T14:25:53.740Z,"    5"
2016-08-25T14:30:51.849Z,"    5"
2016-08-25T14:35:48.644Z,"    5"
2016-08-25T14:40:45.181Z,"    5"
2016-08-25T14:45:44.326Z,"    5"
2016-08-25T14:50:40.552Z,"    5"
2016-08-25T14:55:37.151Z,"    5"
2016-08-25T15:05:34.136Z,"    5"
2016-08-25T15:10:30.783Z,"    5"
2016-08-25T15:15:27.450Z,"    5"
2016-08-25T15:20:24.202Z,"    5"
2016-08-25T15:25:20.896Z,"    5"
2016-08-25T15:30:19.067Z,"    5"
2016-08-25T15:35:15.466Z,"    5"
2016-08-25T15:40:12.089Z,"    5"
2016-08-25T15:45:08.774Z,"    5"
2016-08-25T15:50:05.837Z,"    5"
2016-08-25T15:55:02.549Z,"    5"
2016-08-25T15:59:59.336Z,"    5"
2016-08-25T16:04:55.966Z,"    5"
2016-08-25T16:09:52.564Z,"    5"
2016-08-25T16:14:49.378Z,"    5"
2016-08-25T16:19:46.122Z,"    5"
2016-08-25T16:24:42.896Z,"    5"
2016-08-25T16:29:39.625Z,"    5"
2016-08-25T16:34:36.322Z,"    5"
2016-08-25T16:39:33.352Z,"    5"
2016-08-25T16:44:30.040Z,"    5"
2016-08-25T16:49:26.859Z,"    5"
2016-08-25T16:54:23.526Z,"    5"
2016-08-25T16:59:20.266Z,"    5"
2016-08-25T17:04:16.922Z,"    5"
2016-08-25T17:09:14.924Z,"    5"
2016-08-25T17:14:11.302Z,"    5"
2016-08-25T17:19:08.304Z,"    5"
2016-08-25T17:24:04.908Z,"    5"
2016-08-25T17:29:01.574Z,"    5"
2016-08-25T17:33:58.321Z,"    5"
2016-08-25T17:38:55.012Z,"    0"
2016-08-25T17:43:51.555Z,"    0"
2016-08-25T17:48:48.139Z,"    0"
2016-08-25T17:53:45.028Z,"    0"
2016-08-25T17:58:41.731Z,"    0"
2016-08-25T18:03:38.412Z,"    0"
2016-08-25T18:08:34.980Z,"    0"
2016-08-25T18:13:31.730Z,"    0"
2016-08-25T18:18:28.270Z,"    0"
2016-08-25T18:23:25.164Z,"    0"
2016-08-25T18:28:21.835Z,"    0"
2016-08-25T18:33:18.534Z,"    0"
2016-08-25T18:38:15.508Z,"    0"
2016-08-25T18:43:12.096Z,"    0"
2016-08-25T18:48:08.933Z,"    0"
2016-08-25T18:53:05.562Z,"    0"
2016-08-25T18:58:02.428Z,"    0"
2016-08-25T19:02:59.144Z,"    0"
2016-08-25T19:07:55.849Z,"    0"
2016-08-25T19:12:52.556Z,"    0"
2016-08-25T19:17:49.429Z,"    0"
2016-08-25T19:22:46.062Z,"    0"
2016-08-25T19:27:42.742Z,"    0"
2016-08-25T19:32:39.371Z,"    0"
2016-08-25T19:37:36.182Z,"    0"
2016-08-25T19:42:32.965Z,"    0"
2016-08-25T19:47:29.705Z,"    0"
2016-08-25T19:52:26.236Z,"    0"
2016-08-25T19:57:22.765Z,"    0"
2016-08-25T20:02:19.556Z,"    0"
2016-08-25T20:07:16.212Z,"    0"
2016-08-25T20:12:12.670Z,"    0"
2016-08-25T20:17:09.850Z,"    0"
2016-08-25T20:22:06.443Z,"    0"
2016-08-25T20:27:03.177Z,"    0"
2016-08-25T20:32:02.263Z,"    0"
2016-08-25T20:36:58.310Z,"    0"
2016-08-25T20:41:56.194Z,"    0"
2016-08-25T20:46:52.858Z,"    0"
2016-08-25T20:51:49.410Z,"    0"
2016-08-25T20:56:46.004Z,"    0"
2016-08-25T21:01:42.598Z,"    0"
2016-08-25T21:06:39.272Z,"    0"
2016-08-25T21:11:36.160Z,"    0"
2016-08-25T21:16:32.807Z,"    0"
2016-08-25T21:21:29.988Z,"    0"
2016-08-25T21:26:26.678Z,"    0"
2016-08-25T21:31:23.682Z,"    0"
2016-08-25T21:36:20.647Z,"    0"
2016-08-25T21:41:17.230Z,"    0"
2016-08-25T21:46:13.973Z,"    0"
2016-08-25T21:51:10.476Z,"    0"
2016-08-25T21:56:07.094Z,"    0"
2016-08-25T22:01:04.034Z,"    0"
2016-08-25T22:06:00.747Z,"    0"
2016-08-25T22:10:57.322Z,"    0"
2016-08-25T22:15:54.072Z,"    0"
2016-08-25T22:20:51.166Z,"    0"
2016-08-25T22:25:48.174Z,"    0"
2016-08-25T22:30:44.897Z,"    0"
2016-08-25T22:35:41.570Z,"    0"
2016-08-25T22:40:38.001Z,"    0"
2016-08-25T22:45:35.063Z,"    0"
2016-08-25T22:50:31.828Z,"    0"
2016-08-25T22:55:28.887Z,"    0"
2016-08-25T23:00:25.534Z,"    0"
2016-08-25T23:05:22.085Z,"    0"
2016-08-25T23:10:18.785Z,"    0"
2016-08-25T23:15:15.499Z,"    0"
2016-08-25T23:20:11.981Z,"    0"
2016-08-25T23:25:08.886Z,"    0"
2016-08-25T23:30:05.554Z,"    0"
2016-08-25T23:35:02.136Z,"    0"
2016-08-25T23:39:58.852Z,"    0"
2016-08-25T23:44:55.577Z,"    0"
2016-08-25T23:49:52.247Z,"    0"
2016-08-25T23:54:48.978Z,"    0"
2016-08-25T23:59:45.875Z,"    0"
